createdAt,value
2022-08-09T00:00:11.461Z,20.14
2022-08-09T00:02:59.884Z,19.65
2022-08-09T00:06:17.780Z,19.32
2022-08-09T00:08:32.339Z,18.98
2022-08-09T00:11:05.548Z,18.91
2022-08-09T00:13:33.833Z,19.34
2022-08-09T00:16:06.372Z,19.72
2022-08-09T00:18:35.976Z,19.95
2022-08-09T00:21:05.387Z,20.13
2022-08-09T00:23:55.460Z,20.28
2022-08-09T00:26:32.720Z,20.42
2022-08-09T00:29:03.206Z,20.49
2022-08-09T00:31:58.723Z,20.58
2022-08-09T00:34:19.811Z,20.68
2022-08-09T00:36:48.892Z,20.75
2022-08-09T00:40:12.162Z,20.78
2022-08-09T00:44:16.199Z,20.81
2022-08-09T00:44:54.123Z,20.82
2022-08-09T00:47:24.821Z,20.83
2022-08-09T00:49:57.107Z,20.85
2022-08-09T00:52:30.128Z,20.86
2022-08-09T00:55:00.943Z,20.89
2022-08-09T00:57:34.710Z,20.92
2022-08-09T01:00:21.067Z,20.94
2022-08-09T01:03:13.694Z,20.95
2022-08-09T01:05:46.447Z,20.94
2022-08-09T01:08:27.046Z,20.93
2022-08-09T01:11:21.152Z,20.91
2022-08-09T01:14:04.098Z,20.93
2022-08-09T01:16:47.340Z,20.92
2022-08-09T01:20:02.645Z,20.90
2022-08-09T01:22:46.280Z,20.89
2022-08-09T01:25:42.020Z,20.88
2022-08-09T01:28:16.951Z,20.87
2022-08-09T01:30:52.693Z,20.85
2022-08-09T01:33:24.201Z,20.83
2022-08-09T01:36:15.133Z,20.78
2022-08-09T01:38:47.363Z,20.73
2022-08-09T01:41:19.380Z,20.69
2022-08-09T01:43:59.670Z,20.63
2022-08-09T01:46:31.628Z,20.58
2022-08-09T01:49:10.449Z,20.53
2022-08-09T01:51:44.421Z,20.48
2022-08-09T01:54:14.309Z,20.43
2022-08-09T01:56:47.125Z,20.37
2022-08-09T01:59:20.956Z,20.31
2022-08-09T02:01:59.031Z,20.25
2022-08-09T02:04:30.349Z,20.17
2022-08-09T02:07:17.895Z,20.12
2022-08-09T02:10:03.957Z,20.05
2022-08-09T02:12:34.969Z,20.00
2022-08-09T02:15:06.466Z,19.95
2022-08-09T02:18:00.652Z,19.90
2022-08-09T02:20:32.547Z,19.83
2022-08-09T02:23:04.699Z,19.77
2022-08-09T02:25:42.752Z,19.72
2022-08-09T02:28:45.136Z,19.67
2022-08-09T02:31:21.241Z,19.64
2022-08-09T02:34:06.771Z,19.63
2022-08-09T02:36:41.892Z,19.62
2022-08-09T02:39:20.322Z,19.63
2022-08-09T02:42:06.365Z,19.62
2022-08-09T02:44:41.142Z,19.64
2022-08-09T02:47:12.124Z,19.65
2022-08-09T02:49:44.043Z,19.65
2022-08-09T02:52:15.553Z,19.65
2022-08-09T02:54:53.908Z,19.66
2022-08-09T02:57:24.059Z,19.66
2022-08-09T03:00:20.707Z,19.66
2022-08-09T03:02:58.021Z,19.66
2022-08-09T03:05:26.918Z,19.67
2022-08-09T03:07:55.843Z,19.69
2022-08-09T03:10:26.456Z,19.71
2022-08-09T03:12:54.917Z,19.73
2022-08-09T03:15:24.453Z,19.73
2022-08-09T03:18:10.843Z,19.73
2022-08-09T03:20:39.487Z,19.75
2022-08-09T03:23:24.091Z,19.76
2022-08-09T03:25:58.260Z,19.78
2022-08-09T03:28:31.188Z,19.81
2022-08-09T03:30:59.623Z,19.84
2022-08-09T03:33:52.964Z,19.86
2022-08-09T03:36:27.432Z,19.87
2022-08-09T03:38:56.711Z,19.90
2022-08-09T03:41:29.691Z,19.93
2022-08-09T03:44:08.141Z,19.97
2022-08-09T03:46:37.024Z,20.00
2022-08-09T03:49:08.223Z,20.04
2022-08-09T03:51:56.911Z,20.08
2022-08-09T03:54:38.476Z,20.11
2022-08-09T03:57:20.084Z,20.14
2022-08-09T03:59:54.797Z,20.19
2022-08-09T04:02:28.827Z,20.24
2022-08-09T04:04:59.209Z,20.29
2022-08-09T04:07:33.638Z,20.35
2022-08-09T04:10:18.309Z,20.41
2022-08-09T04:12:50.960Z,20.49
2022-08-09T04:15:52.571Z,20.56
2022-08-09T04:18:09.704Z,20.63
2022-08-09T04:20:49.129Z,20.72
2022-08-09T04:23:23.315Z,20.78
2022-08-09T04:25:54.133Z,20.84
2022-08-09T04:28:34.027Z,20.91
2022-08-09T04:31:08.664Z,20.97
2022-08-09T04:33:47.340Z,21.05
2022-08-09T04:36:19.584Z,21.14
2022-08-09T04:38:47.636Z,21.23
2022-08-09T04:41:15.450Z,21.33
2022-08-09T04:43:49.728Z,21.43
2022-08-09T04:46:37.543Z,21.53
2022-08-09T04:49:30.264Z,21.62
2022-08-09T04:52:07.565Z,21.70
2022-08-09T04:54:37.483Z,21.76
2022-08-09T04:57:05.511Z,21.80
2022-08-09T04:59:37.886Z,21.81
2022-08-09T05:02:05.907Z,21.82
2022-08-09T05:04:34.510Z,21.84
2022-08-09T05:07:02.377Z,21.89
2022-08-09T05:09:41.890Z,21.84
2022-08-09T05:12:11.122Z,21.39
2022-08-09T05:14:40.966Z,20.95
2022-08-09T05:17:15.323Z,20.71
2022-08-09T05:19:58.113Z,21.03
2022-08-09T05:23:50.606Z,21.31
2022-08-09T05:25:15.215Z,21.54
2022-08-09T05:27:46.372Z,21.68
2022-08-09T05:30:17.744Z,21.80
2022-08-09T05:32:50.833Z,21.80
2022-08-09T05:35:22.045Z,21.38
2022-08-09T05:37:51.025Z,20.95
2022-08-09T05:40:18.813Z,20.62
2022-08-09T05:42:48.907Z,20.48
2022-08-09T05:45:17.988Z,20.88
2022-08-09T05:47:52.295Z,21.33
2022-08-09T05:50:51.404Z,21.70
2022-08-09T05:53:32.479Z,21.86
2022-08-09T05:56:01.511Z,21.50
2022-08-09T05:58:29.586Z,21.20
2022-08-09T06:00:58.237Z,21.03
2022-08-09T06:03:34.737Z,21.06
2022-08-09T06:06:12.575Z,21.57
2022-08-09T06:08:40.364Z,22.01
2022-08-09T06:11:16.621Z,22.25
2022-08-09T06:13:47.348Z,22.00
2022-08-09T06:16:15.349Z,21.69
2022-08-09T06:18:44.132Z,21.48
2022-08-09T06:21:12.459Z,21.30
2022-08-09T06:23:58.570Z,21.18
2022-08-09T06:26:29.897Z,21.05
2022-08-09T06:29:05.237Z,20.98
2022-08-09T06:31:40.567Z,21.09
2022-08-09T06:34:22.643Z,21.69
2022-08-09T06:36:59.313Z,22.20
2022-08-09T06:39:48.804Z,22.50
2022-08-09T06:42:24.871Z,22.23
2022-08-09T06:44:57.403Z,21.91
2022-08-09T06:47:25.522Z,21.69
2022-08-09T06:50:13.664Z,21.59
2022-08-09T06:52:48.689Z,21.55
2022-08-09T06:55:22.290Z,21.56
2022-08-09T06:58:02.083Z,21.61
2022-08-09T07:00:56.084Z,21.69
2022-08-09T07:03:28.495Z,21.78
2022-08-09T07:06:03.851Z,21.85
2022-08-09T07:08:35.322Z,21.94
2022-08-09T07:11:06.776Z,22.02
2022-08-09T07:14:05.733Z,22.11
2022-08-09T07:16:42.754Z,22.23
2022-08-09T07:19:15.388Z,22.36
2022-08-09T07:21:55.651Z,22.47
2022-08-09T07:24:32.556Z,22.60
2022-08-09T07:27:27.311Z,22.73
2022-08-09T07:29:59.892Z,22.88
2022-08-09T07:32:33.487Z,23.01
2022-08-09T07:35:08.211Z,23.15
2022-08-09T07:37:44.535Z,23.21
2022-08-09T07:40:18.924Z,23.28
2022-08-09T07:42:56.290Z,23.39
2022-08-09T07:45:37.675Z,23.51
2022-08-09T07:48:25.260Z,23.60
2022-08-09T07:51:09.308Z,23.71
2022-08-09T07:54:05.816Z,23.75
2022-08-09T07:56:49.810Z,23.83
2022-08-09T07:59:33.906Z,23.91
2022-08-09T08:02:09.086Z,24.04
2022-08-09T08:04:37.817Z,24.16
2022-08-09T08:07:21.575Z,24.28
2022-08-09T08:10:08.895Z,24.42
2022-08-09T08:12:45.556Z,24.52
2022-08-09T08:15:24.208Z,24.58
2022-08-09T08:17:57.901Z,24.70
2022-08-09T08:20:30.647Z,24.89
2022-08-09T08:23:06.595Z,25.06
2022-08-09T08:25:49.986Z,25.34
2022-08-09T08:28:31.974Z,25.64
2022-08-09T08:31:10.647Z,25.89
2022-08-09T08:33:52.806Z,26.04
2022-08-09T08:36:29.620Z,26.35
2022-08-09T08:38:59.861Z,26.70
2022-08-09T08:41:50.470Z,27.00
2022-08-09T08:44:27.124Z,27.34
2022-08-09T08:47:03.398Z,27.59
2022-08-09T08:49:48.256Z,27.72
2022-08-09T08:55:07.579Z,27.87
2022-08-09T08:57:37.135Z,27.93
2022-08-09T09:00:20.298Z,28.12
2022-08-09T09:03:08.123Z,28.29
2022-08-09T09:05:58.380Z,28.50
2022-08-09T09:08:38.073Z,28.74
2022-08-09T09:11:13.747Z,28.96
2022-08-09T09:13:56.809Z,29.16
2022-08-09T09:16:33.739Z,29.46
2022-08-09T09:19:37.093Z,29.89
2022-08-09T09:22:26.943Z,30.33
2022-08-09T09:26:01.714Z,30.65
2022-08-09T09:28:05.102Z,30.81
2022-08-09T09:30:41.280Z,30.83
2022-08-09T09:33:16.949Z,30.71
2022-08-09T09:36:01.586Z,30.49
2022-08-09T09:38:47.409Z,30.20
2022-08-09T09:41:27.942Z,29.91
2022-08-09T09:44:11.574Z,29.62
2022-08-09T09:46:45.883Z,29.34
2022-08-09T09:49:31.695Z,29.02
2022-08-09T09:52:16.387Z,28.76
2022-08-09T09:55:16.027Z,28.51
2022-08-09T09:58:16.353Z,28.11
2022-08-09T10:00:58.826Z,27.76
2022-08-09T10:03:42.836Z,27.60
2022-08-09T10:06:12.675Z,27.38
2022-08-09T10:08:44.247Z,27.11
2022-08-09T10:11:59.980Z,26.89
2022-08-09T10:14:27.264Z,26.73
2022-08-09T10:17:11.451Z,26.56
2022-08-09T10:19:43.519Z,26.35
2022-08-09T10:22:13.669Z,26.20
2022-08-09T10:24:41.397Z,26.07
2022-08-09T10:27:17.197Z,25.96
2022-08-09T10:30:16.521Z,25.87
2022-08-09T10:32:42.274Z,25.77
2022-08-09T10:35:10.750Z,25.65
2022-08-09T10:37:42.022Z,25.52
2022-08-09T10:40:12.128Z,25.49
2022-08-09T10:42:58.223Z,25.55
2022-08-09T10:45:31.878Z,25.56
2022-08-09T10:48:17.473Z,25.60
2022-08-09T10:51:17.799Z,25.73
2022-08-09T10:54:09.965Z,25.90
2022-08-09T10:56:42.174Z,26.04
2022-08-09T10:59:31.329Z,26.26
2022-08-09T11:03:11.890Z,26.55
2022-08-09T11:05:24.678Z,26.87
2022-08-09T11:07:59.375Z,27.49
2022-08-09T11:10:46.978Z,28.10
2022-08-09T11:13:50.384Z,28.93
2022-08-09T11:16:34.972Z,29.77
2022-08-09T11:19:09.432Z,30.46
2022-08-09T11:22:05.132Z,30.68
2022-08-09T11:25:08.767Z,30.89
2022-08-09T11:28:04.400Z,31.05
2022-08-09T11:30:37.568Z,31.26
2022-08-09T11:33:15.437Z,31.30
2022-08-09T11:35:49.200Z,31.24
2022-08-09T11:38:33.136Z,31.32
2022-08-09T11:41:16.169Z,31.56
2022-08-09T11:43:49.055Z,31.89
2022-08-09T11:46:26.589Z,31.94
2022-08-09T11:49:05.363Z,31.88
2022-08-09T11:53:03.269Z,31.88
2022-08-09T11:55:35.129Z,31.93
2022-08-09T11:58:15.687Z,31.82
2022-08-09T12:00:52.972Z,31.59
2022-08-09T12:03:55.122Z,31.15
2022-08-09T12:06:24.679Z,30.82
2022-08-09T12:08:56.976Z,30.58
2022-08-09T12:11:26.674Z,30.21
2022-08-09T12:14:11.103Z,29.83
2022-08-09T12:16:45.201Z,29.50
2022-08-09T12:19:14.808Z,29.26
2022-08-09T12:21:51.503Z,29.06
2022-08-09T12:24:23.985Z,28.91
2022-08-09T12:28:59.953Z,28.88
2022-08-09T12:30:01.478Z,29.05
2022-08-09T12:32:42.267Z,29.07
2022-08-09T12:35:12.681Z,28.98
2022-08-09T12:37:51.517Z,28.98
2022-08-09T12:40:23.067Z,29.13
2022-08-09T12:42:54.035Z,29.20
2022-08-09T12:45:34.842Z,29.30
2022-08-09T12:48:20.094Z,29.51
2022-08-09T12:50:56.799Z,29.75
2022-08-09T12:53:36.907Z,29.91
2022-08-09T12:56:11.502Z,29.90
2022-08-09T12:59:04.655Z,29.75
2022-08-09T13:01:32.414Z,29.61
2022-08-09T13:04:02.550Z,29.47
2022-08-09T13:06:38.974Z,29.27
2022-08-09T13:09:17.951Z,29.09
2022-08-09T13:11:49.541Z,28.94
2022-08-09T13:14:42.309Z,28.80
2022-08-09T13:17:44.000Z,28.64
2022-08-09T13:20:16.251Z,28.45
2022-08-09T13:23:06.091Z,28.29
2022-08-09T13:25:42.956Z,28.18
2022-08-09T13:28:33.921Z,28.02
2022-08-09T13:32:13.577Z,27.92
2022-08-09T13:33:54.669Z,27.76
2022-08-09T13:36:37.464Z,27.50
2022-08-09T13:41:17.567Z,27.23
2022-08-09T13:42:12.179Z,26.95
2022-08-09T13:44:45.662Z,26.75
2022-08-09T13:47:33.723Z,26.66
2022-08-09T13:50:12.489Z,26.68
2022-08-09T13:52:41.917Z,26.70
2022-08-09T13:55:13.770Z,26.67
2022-08-09T13:57:47.352Z,26.62
2022-08-09T14:00:28.654Z,26.57
2022-08-09T14:03:03.441Z,26.54
2022-08-09T14:05:58.314Z,26.59
2022-08-09T14:08:28.641Z,26.83
2022-08-09T14:10:59.426Z,27.07
2022-08-09T14:14:23.710Z,27.14
2022-08-09T14:16:19.983Z,27.22
2022-08-09T14:18:58.090Z,27.38
2022-08-09T14:21:29.208Z,27.47
2022-08-09T14:24:05.517Z,27.50
2022-08-09T14:26:51.955Z,27.53
2022-08-09T14:30:04.028Z,27.53
2022-08-09T14:32:13.108Z,27.57
2022-08-09T14:34:44.879Z,27.77
2022-08-09T14:37:13.262Z,28.07
2022-08-09T14:39:47.756Z,28.11
2022-08-09T14:42:28.710Z,28.01
2022-08-09T14:46:46.362Z,27.81
2022-08-09T14:47:57.074Z,27.52
2022-08-09T14:50:32.873Z,27.22
2022-08-09T14:53:03.019Z,26.95
2022-08-09T14:55:34.191Z,26.72
2022-08-09T14:58:03.857Z,26.52
2022-08-09T15:00:36.106Z,26.33
2022-08-09T15:03:07.334Z,26.13
2022-08-09T15:05:37.323Z,25.97
2022-08-09T15:08:06.353Z,25.87
2022-08-09T15:10:38.438Z,25.78
2022-08-09T15:13:08.929Z,25.69
2022-08-09T15:15:38.904Z,25.71
2022-08-09T15:18:12.364Z,25.75
2022-08-09T15:21:56.529Z,25.73
2022-08-09T15:24:01.309Z,25.59
2022-08-09T15:26:31.438Z,25.36
2022-08-09T15:29:04.454Z,25.20
2022-08-09T15:31:41.712Z,25.05
2022-08-09T15:34:32.743Z,24.91
2022-08-09T15:36:59.380Z,24.76
2022-08-09T15:39:49.919Z,24.65
2022-08-09T15:42:15.088Z,24.57
2022-08-09T15:44:42.953Z,24.51
2022-08-09T15:47:14.615Z,24.44
2022-08-09T15:50:00.556Z,24.36
2022-08-09T15:52:37.898Z,24.30
2022-08-09T15:55:08.914Z,24.26
2022-08-09T15:57:44.401Z,24.22
2022-08-09T16:00:24.265Z,24.20
2022-08-09T16:02:56.246Z,24.19
2022-08-09T16:05:47.123Z,24.18
2022-08-09T16:08:31.018Z,24.12
2022-08-09T16:11:03.350Z,24.04
2022-08-09T16:14:03.620Z,23.94
2022-08-09T16:16:19.951Z,23.83
2022-08-09T16:18:47.943Z,23.76
2022-08-09T16:21:17.370Z,23.67
2022-08-09T16:23:58.645Z,23.59
2022-08-09T16:26:34.901Z,23.50
2022-08-09T16:29:12.857Z,23.41
2022-08-09T16:32:19.422Z,23.32
2022-08-09T16:34:57.001Z,23.20
2022-08-09T16:37:55.766Z,23.09
2022-08-09T16:40:10.816Z,22.99
2022-08-09T16:42:45.074Z,22.92
2022-08-09T16:45:19.779Z,22.84
2022-08-09T16:48:38.160Z,22.77
2022-08-09T16:50:38.704Z,22.69
2022-08-09T16:53:08.734Z,22.60
2022-08-09T16:55:58.547Z,22.52
2022-08-09T16:58:25.297Z,22.43
2022-08-09T17:00:53.826Z,22.35
2022-08-09T17:03:23.987Z,22.27
2022-08-09T17:06:07.646Z,22.19
2022-08-09T17:09:00.049Z,22.08
2022-08-09T17:11:37.652Z,21.98
2022-08-09T17:14:16.252Z,21.89
2022-08-09T17:16:59.414Z,21.79
2022-08-09T17:19:46.638Z,21.70
2022-08-09T17:22:25.006Z,21.59
2022-08-09T17:25:02.662Z,21.49
2022-08-09T17:27:33.796Z,21.38
2022-08-09T17:30:04.660Z,21.28
2022-08-09T17:32:38.313Z,21.18
2022-08-09T17:35:12.395Z,21.06
2022-08-09T17:38:07.662Z,20.94
2022-08-09T17:40:31.884Z,20.82
2022-08-09T17:43:10.597Z,20.70
2022-08-09T17:46:02.697Z,20.57
2022-08-09T17:48:38.858Z,20.44
2022-08-09T17:51:17.259Z,20.45
2022-08-09T17:53:48.253Z,20.90
2022-08-09T17:56:22.175Z,21.31
2022-08-09T17:59:01.081Z,21.58
2022-08-09T18:02:03.636Z,21.77
2022-08-09T18:04:20.630Z,21.92
2022-08-09T18:06:49.701Z,22.01
2022-08-09T18:09:35.811Z,22.07
2022-08-09T18:12:17.272Z,22.00
2022-08-09T18:14:54.672Z,21.51
2022-08-09T18:18:04.010Z,21.03
2022-08-09T18:21:00.003Z,20.78
2022-08-09T18:23:05.185Z,21.08
2022-08-09T18:25:52.925Z,21.29
2022-08-09T18:30:41.445Z,21.42
2022-08-09T18:31:11.729Z,21.48
2022-08-09T18:33:40.257Z,21.51
2022-08-09T18:36:25.362Z,21.52
2022-08-09T18:39:02.892Z,21.51
2022-08-09T18:41:34.965Z,21.48
2022-08-09T18:44:12.864Z,21.36
2022-08-09T18:46:50.611Z,20.81
2022-08-09T18:49:32.384Z,20.22
2022-08-09T18:52:12.556Z,19.92
2022-08-09T18:54:49.714Z,20.13
2022-08-09T18:57:22.791Z,20.36
2022-08-09T18:59:55.512Z,20.46
2022-08-09T19:02:30.669Z,20.50
2022-08-09T19:05:14.061Z,20.52
2022-08-09T19:07:59.324Z,20.52
2022-08-09T19:10:37.326Z,20.50
2022-08-09T19:13:22.180Z,20.50
2022-08-09T19:15:52.592Z,20.46
2022-08-09T19:18:33.404Z,20.43
2022-08-09T19:21:08.845Z,20.41
2022-08-09T19:24:37.481Z,20.39
2022-08-09T19:26:31.241Z,20.36
2022-08-09T19:29:02.417Z,20.33
2022-08-09T19:31:44.353Z,20.28
2022-08-09T19:34:21.886Z,20.23
2022-08-09T19:36:53.402Z,20.17
2022-08-09T19:39:28.929Z,20.12
2022-08-09T19:42:15.374Z,20.06
2022-08-09T19:44:50.825Z,20.01
2022-08-09T19:47:23.229Z,19.97
2022-08-09T19:50:08.110Z,19.91
2022-08-09T19:52:51.406Z,19.84
2022-08-09T19:55:25.663Z,19.78
2022-08-09T19:57:59.641Z,19.73
2022-08-09T20:00:27.460Z,19.70
2022-08-09T20:04:17.151Z,19.66
2022-08-09T20:05:46.055Z,19.62
2022-08-09T20:08:16.204Z,19.59
2022-08-09T20:11:04.217Z,19.55
2022-08-09T20:13:36.985Z,19.50
2022-08-09T20:16:33.645Z,19.46
2022-08-09T20:19:42.515Z,19.42
2022-08-09T20:21:56.453Z,19.37
2022-08-09T20:24:32.094Z,19.36
2022-08-09T20:27:05.661Z,19.35
2022-08-09T20:29:38.764Z,19.32
2022-08-09T20:32:28.648Z,19.26
2022-08-09T20:34:59.838Z,19.15
2022-08-09T20:38:18.768Z,19.03
2022-08-09T20:40:27.217Z,18.93
2022-08-09T20:43:00.183Z,18.88
2022-08-09T20:45:59.315Z,18.84
2022-08-09T20:48:31.135Z,18.81
2022-08-09T20:51:01.032Z,18.79
2022-08-09T20:53:35.627Z,18.75
2022-08-09T20:56:09.680Z,18.69
2022-08-09T20:58:54.618Z,18.63
2022-08-09T21:01:34.673Z,18.60
2022-08-09T21:05:56.780Z,18.58
2022-08-09T21:07:11.433Z,18.56
2022-08-09T21:09:46.110Z,18.55
2022-08-09T21:15:17.548Z,18.54
2022-08-09T21:18:21.162Z,18.53
2022-08-09T21:20:41.555Z,18.51
2022-08-09T21:23:13.077Z,18.51
2022-08-09T21:25:59.233Z,18.49
2022-08-09T21:28:33.383Z,18.46
2022-08-09T21:31:01.672Z,18.44
2022-08-09T21:33:52.424Z,18.41
2022-08-09T21:36:29.086Z,18.39
2022-08-09T21:38:59.501Z,18.36
2022-08-09T21:42:05.884Z,18.36
2022-08-09T21:44:33.798Z,18.34
2022-08-09T21:47:04.977Z,18.31
2022-08-09T21:49:39.699Z,18.27
2022-08-09T21:52:18.007Z,18.23
2022-08-09T21:54:59.730Z,18.18
2022-08-09T21:57:39.513Z,18.14
2022-08-09T22:00:25.540Z,18.12
2022-08-09T22:02:59.355Z,18.08
2022-08-09T22:05:35.368Z,18.09
2022-08-09T22:08:13.942Z,18.07
2022-08-09T22:11:00.796Z,18.05
2022-08-09T22:13:34.525Z,18.02
2022-08-09T22:16:07.479Z,18.00
2022-08-09T22:18:43.989Z,17.99
2022-08-09T22:21:44.751Z,17.97
2022-08-09T22:24:16.947Z,17.97
2022-08-09T22:26:51.432Z,17.97
2022-08-09T22:29:27.018Z,17.96
2022-08-09T22:32:00.250Z,17.94
2022-08-09T22:34:28.546Z,17.93
2022-08-09T22:36:57.747Z,17.91
2022-08-09T22:39:56.059Z,17.89
2022-08-09T22:42:20.886Z,17.86
2022-08-09T22:45:00.038Z,17.85
2022-08-09T22:48:17.751Z,17.82
2022-08-09T22:50:32.225Z,17.81
2022-08-09T22:53:03.637Z,17.79
2022-08-09T22:56:06.514Z,17.76
2022-08-09T22:58:32.399Z,17.72
2022-08-09T23:01:03.323Z,17.70
2022-08-09T23:04:03.596Z,17.67
2022-08-09T23:06:34.986Z,17.61
2022-08-09T23:09:07.713Z,17.56
2022-08-09T23:11:35.432Z,17.53
2022-08-09T23:14:03.981Z,17.51
2022-08-09T23:16:32.037Z,17.50
2022-08-09T23:19:00.798Z,17.49
2022-08-09T23:21:34.329Z,17.47
2022-08-09T23:24:07.595Z,17.44
2022-08-09T23:26:36.838Z,17.42
2022-08-09T23:29:13.818Z,17.39
2022-08-09T23:31:42.601Z,17.37
2022-08-09T23:34:10.542Z,17.32
2022-08-09T23:36:38.627Z,17.30
2022-08-09T23:39:08.200Z,17.28
2022-08-09T23:41:36.181Z,17.25
2022-08-09T23:44:04.599Z,17.24
2022-08-09T23:46:32.335Z,17.22
2022-08-09T23:49:00.545Z,17.21
2022-08-09T23:51:28.726Z,17.19
2022-08-09T23:54:02.938Z,17.18
2022-08-09T23:56:53.520Z,17.16
2022-08-09T23:59:24.368Z,17.13
